sensor_id;sensor_type;location;lat;lon;timestamp;pressure;altitude;pressure_sealevel;temperature
45701;BMP280;36277;32.852;-116.998;2023-03-23T00:00:20;100405.97;;;24.98
45701;BMP280;36277;32.852;-116.998;2023-03-23T00:02:46;100401.97;;;25.00
45701;BMP280;36277;32.852;-116.998;2023-03-23T00:05:13;100386.25;;;25.01
45701;BMP280;36277;32.852;-116.998;2023-03-23T00:07:40;100386.09;;;25.02
45701;BMP280;36277;32.852;-116.998;2023-03-23T00:10:11;100390.72;;;25.02
45701;BMP280;36277;32.852;-116.998;2023-03-23T00:12:37;100394.38;;;25.02
45701;BMP280;36277;32.852;-116.998;2023-03-23T00:15:08;100385.88;;;25.04
45701;BMP280;36277;32.852;-116.998;2023-03-23T00:17:39;100394.16;;;25.04
45701;BMP280;36277;32.852;-116.998;2023-03-23T00:20:07;100391.00;;;25.07
45701;BMP280;36277;32.852;-116.998;2023-03-23T00:22:34;100385.50;;;25.07
45701;BMP280;36277;32.852;-116.998;2023-03-23T00:25:05;100394.44;;;25.09
45701;BMP280;36277;32.852;-116.998;2023-03-23T00:27:31;100385.97;;;25.10
45701;BMP280;36277;32.852;-116.998;2023-03-23T00:29:58;100391.09;;;25.13
45701;BMP280;36277;32.852;-116.998;2023-03-23T00:32:25;100390.06;;;25.14
45701;BMP280;36277;32.852;-116.998;2023-03-23T00:34:57;100393.69;;;25.15
45701;BMP280;36277;32.852;-116.998;2023-03-23T00:37:27;100400.41;;;25.12
45701;BMP280;36277;32.852;-116.998;2023-03-23T00:39:53;100400.63;;;25.11
45701;BMP280;36277;32.852;-116.998;2023-03-23T00:42:23;100411.69;;;25.11
45701;BMP280;36277;32.852;-116.998;2023-03-23T00:44:49;100407.19;;;25.10
45701;BMP280;36277;32.852;-116.998;2023-03-23T00:47:15;100405.88;;;25.06
45701;BMP280;36277;32.852;-116.998;2023-03-23T00:49:43;100406.25;;;25.03
45701;BMP280;36277;32.852;-116.998;2023-03-23T00:52:09;100399.69;;;25.04
45701;BMP280;36277;32.852;-116.998;2023-03-23T00:54:37;100408.34;;;25.01
45701;BMP280;36277;32.852;-116.998;2023-03-23T00:57:04;100405.59;;;25.01
45701;BMP280;36277;32.852;-116.998;2023-03-23T00:59:31;100410.06;;;25.02
45701;BMP280;36277;32.852;-116.998;2023-03-23T01:01:57;100417.69;;;25.00
45701;BMP280;36277;32.852;-116.998;2023-03-23T01:04:23;100414.25;;;24.98
45701;BMP280;36277;32.852;-116.998;2023-03-23T01:06:51;100421.03;;;24.95
45701;BMP280;36277;32.852;-116.998;2023-03-23T01:09:18;100417.00;;;24.98
45701;BMP280;36277;32.852;-116.998;2023-03-23T01:11:48;100418.47;;;24.94
45701;BMP280;36277;32.852;-116.998;2023-03-23T01:14:17;100424.00;;;24.94
45701;BMP280;36277;32.852;-116.998;2023-03-23T01:16:44;100427.81;;;24.93
45701;BMP280;36277;32.852;-116.998;2023-03-23T01:19:10;100421.41;;;24.92
45701;BMP280;36277;32.852;-116.998;2023-03-23T01:21:37;100424.19;;;24.92
45701;BMP280;36277;32.852;-116.998;2023-03-23T01:24:04;100429.53;;;24.94
45701;BMP280;36277;32.852;-116.998;2023-03-23T01:26:30;100429.53;;;24.94
45701;BMP280;36277;32.852;-116.998;2023-03-23T01:28:57;100430.38;;;24.94
45701;BMP280;36277;32.852;-116.998;2023-03-23T01:31:24;100425.06;;;24.93
45701;BMP280;36277;32.852;-116.998;2023-03-23T01:33:52;100429.03;;;24.90
45701;BMP280;36277;32.852;-116.998;2023-03-23T01:36:24;100434.56;;;24.90
45701;BMP280;36277;32.852;-116.998;2023-03-23T01:38:55;100432.00;;;24.89
45701;BMP280;36277;32.852;-116.998;2023-03-23T01:41:23;100431.50;;;24.85
45701;BMP280;36277;32.852;-116.998;2023-03-23T01:44:59;100427.53;;;24.88
45701;BMP280;36277;32.852;-116.998;2023-03-23T01:46:53;100423.34;;;24.77
45701;BMP280;36277;32.852;-116.998;2023-03-23T01:49:36;100432.75;;;24.83
45701;BMP280;36277;32.852;-116.998;2023-03-23T01:52:30;100432.28;;;24.79
45701;BMP280;36277;32.852;-116.998;2023-03-23T01:54:56;100434.94;;;24.73
45701;BMP280;36277;32.852;-116.998;2023-03-23T01:57:25;100432.84;;;24.75
45701;BMP280;36277;32.852;-116.998;2023-03-23T01:59:53;100433.03;;;24.73
45701;BMP280;36277;32.852;-116.998;2023-03-23T02:02:23;100428.38;;;24.74
45701;BMP280;36277;32.852;-116.998;2023-03-23T02:04:51;100432.19;;;24.73
45701;BMP280;36277;32.852;-116.998;2023-03-23T02:07:20;100432.19;;;24.73
45701;BMP280;36277;32.852;-116.998;2023-03-23T02:09:47;100439.81;;;24.71
45701;BMP280;36277;32.852;-116.998;2023-03-23T02:12:15;100434.31;;;24.71
45701;BMP280;36277;32.852;-116.998;2023-03-23T02:14:41;100432.59;;;24.70
45701;BMP280;36277;32.852;-116.998;2023-03-23T02:17:22;100428.78;;;24.71
45701;BMP280;36277;32.852;-116.998;2023-03-23T02:22:39;100436.56;;;24.67
45701;BMP280;36277;32.852;-116.998;2023-03-23T02:25:18;100438.56;;;24.59
45701;BMP280;36277;32.852;-116.998;2023-03-23T02:28:15;100433.03;;;24.59
45701;BMP280;36277;32.852;-116.998;2023-03-23T02:33:40;100435.13;;;24.57
45701;BMP280;36277;32.852;-116.998;2023-03-23T02:36:28;100436.56;;;24.53
45701;BMP280;36277;32.852;-116.998;2023-03-23T02:41:30;100434.84;;;24.52
45701;BMP280;36277;32.852;-116.998;2023-03-23T02:43:57;100436.09;;;24.49
45701;BMP280;36277;32.852;-116.998;2023-03-23T02:46:25;100439.69;;;24.50
45701;BMP280;36277;32.852;-116.998;2023-03-23T02:48:55;100439.53;;;24.51
45701;BMP280;36277;32.852;-116.998;2023-03-23T02:51:24;100442.66;;;24.48
45701;BMP280;36277;32.852;-116.998;2023-03-23T02:53:52;100440.22;;;24.45
45701;BMP280;36277;32.852;-116.998;2023-03-23T02:56:20;100443.56;;;24.41
45701;BMP280;36277;32.852;-116.998;2023-03-23T02:58:48;100449.94;;;24.41
45701;BMP280;36277;32.852;-116.998;2023-03-23T03:04:14;100461.09;;;24.48
45701;BMP280;36277;32.852;-116.998;2023-03-23T03:07:18;100474.22;;;24.46
45701;BMP280;36277;32.852;-116.998;2023-03-23T03:12:27;100483.53;;;24.45
45701;BMP280;36277;32.852;-116.998;2023-03-23T03:17:44;100482.00;;;24.42
45701;BMP280;36277;32.852;-116.998;2023-03-23T03:20:12;100486.00;;;24.40
45701;BMP280;36277;32.852;-116.998;2023-03-23T03:22:41;100480.47;;;24.40
45701;BMP280;36277;32.852;-116.998;2023-03-23T03:25:10;100481.16;;;24.42
45701;BMP280;36277;32.852;-116.998;2023-03-23T03:27:44;100484.75;;;24.42
45701;BMP280;36277;32.852;-116.998;2023-03-23T03:30:14;100490.47;;;24.41
45701;BMP280;36277;32.852;-116.998;2023-03-23T03:32:48;100494.94;;;24.42
45701;BMP280;36277;32.852;-116.998;2023-03-23T03:35:17;100491.00;;;24.36
45701;BMP280;36277;32.852;-116.998;2023-03-23T03:37:44;100505.00;;;24.35
45701;BMP280;36277;32.852;-116.998;2023-03-23T03:40:16;100491.88;;;24.37
45701;BMP280;36277;32.852;-116.998;2023-03-23T03:42:44;100491.50;;;24.40
45701;BMP280;36277;32.852;-116.998;2023-03-23T03:45:13;100493.41;;;24.39
45701;BMP280;36277;32.852;-116.998;2023-03-23T03:47:40;100504.44;;;24.39
45701;BMP280;36277;32.852;-116.998;2023-03-23T03:50:07;100505.31;;;24.40
45701;BMP280;36277;32.852;-116.998;2023-03-23T03:52:35;100510.25;;;24.44
45701;BMP280;36277;32.852;-116.998;2023-03-23T03:55:01;100510.09;;;24.46
45701;BMP280;36277;32.852;-116.998;2023-03-23T03:57:28;100515.06;;;24.50
45701;BMP280;36277;32.852;-116.998;2023-03-23T03:59:54;100513.66;;;24.54
45701;BMP280;36277;32.852;-116.998;2023-03-23T04:02:20;100513.06;;;24.59
45701;BMP280;36277;32.852;-116.998;2023-03-23T04:04:47;100514.44;;;24.63
45701;BMP280;36277;32.852;-116.998;2023-03-23T04:07:14;100518.91;;;24.64
45701;BMP280;36277;32.852;-116.998;2023-03-23T04:09:45;100523.84;;;24.68
45701;BMP280;36277;32.852;-116.998;2023-03-23T04:12:14;100530.25;;;24.69
45701;BMP280;36277;32.852;-116.998;2023-03-23T04:14:41;100534.72;;;24.70
45701;BMP280;36277;32.852;-116.998;2023-03-23T04:17:07;100531.38;;;24.74
45701;BMP280;36277;32.852;-116.998;2023-03-23T04:19:37;100531.84;;;24.78
45701;BMP280;36277;32.852;-116.998;2023-03-23T04:22:04;100529.75;;;24.80
45701;BMP280;36277;32.852;-116.998;2023-03-23T04:24:31;100537.00;;;24.81
45701;BMP280;36277;32.852;-116.998;2023-03-23T04:26:59;100536.81;;;24.82
45701;BMP280;36277;32.852;-116.998;2023-03-23T04:29:27;100549.97;;;24.80
45701;BMP280;36277;32.852;-116.998;2023-03-23T04:31:53;100553.41;;;24.82
45701;BMP280;36277;32.852;-116.998;2023-03-23T04:34:22;100544.44;;;24.80
45701;BMP280;36277;32.852;-116.998;2023-03-23T04:36:49;100557.19;;;24.81
45701;BMP280;36277;32.852;-116.998;2023-03-23T04:39:16;100561.84;;;24.81
45701;BMP280;36277;32.852;-116.998;2023-03-23T04:41:43;100558.91;;;24.82
45701;BMP280;36277;32.852;-116.998;2023-03-23T04:44:10;100564.44;;;24.82
45701;BMP280;36277;32.852;-116.998;2023-03-23T04:46:36;100569.09;;;24.82
45701;BMP280;36277;32.852;-116.998;2023-03-23T04:49:02;100567.38;;;24.81
45701;BMP280;36277;32.852;-116.998;2023-03-23T04:51:29;100571.16;;;24.80
45701;BMP280;36277;32.852;-116.998;2023-03-23T04:53:58;100562.88;;;24.80
45701;BMP280;36277;32.852;-116.998;2023-03-23T04:56:24;100572.88;;;24.81
45701;BMP280;36277;32.852;-116.998;2023-03-23T04:58:51;100575.66;;;24.81
45701;BMP280;36277;32.852;-116.998;2023-03-23T05:01:17;100578.78;;;24.78
45701;BMP280;36277;32.852;-116.998;2023-03-23T05:03:44;100584.81;;;24.81
45701;BMP280;36277;32.852;-116.998;2023-03-23T05:06:11;100595.84;;;24.81
45701;BMP280;36277;32.852;-116.998;2023-03-23T05:08:37;100595.84;;;24.81
45701;BMP280;36277;32.852;-116.998;2023-03-23T05:11:05;100599.44;;;24.82
45701;BMP280;36277;32.852;-116.998;2023-03-23T05:13:32;100610.19;;;24.77
45701;BMP280;36277;32.852;-116.998;2023-03-23T05:16:02;100607.44;;;24.77
45701;BMP280;36277;32.852;-116.998;2023-03-23T05:18:29;100599.53;;;24.74
45701;BMP280;36277;32.852;-116.998;2023-03-23T05:20:55;100599.53;;;24.74
45701;BMP280;36277;32.852;-116.998;2023-03-23T05:23:25;100607.16;;;24.72
45701;BMP280;36277;32.852;-116.998;2023-03-23T05:25:55;100612.28;;;24.75
45701;BMP280;36277;32.852;-116.998;2023-03-23T05:28:21;100609.25;;;24.70
45701;BMP280;36277;32.852;-116.998;2023-03-23T05:30:48;100617.53;;;24.70
45701;BMP280;36277;32.852;-116.998;2023-03-23T05:33:15;100610.66;;;24.66
45701;BMP280;36277;32.852;-116.998;2023-03-23T05:35:41;100609.78;;;24.65
45701;BMP280;36277;32.852;-116.998;2023-03-23T05:38:08;100607.03;;;24.65
45701;BMP280;36277;32.852;-116.998;2023-03-23T05:40:34;100625.50;;;24.65
45701;BMP280;36277;32.852;-116.998;2023-03-23T05:43:00;100627.47;;;24.56
45701;BMP280;36277;32.852;-116.998;2023-03-23T05:45:27;100616.91;;;24.60
45701;BMP280;36277;32.852;-116.998;2023-03-23T05:47:53;100637.59;;;24.64
45701;BMP280;36277;32.852;-116.998;2023-03-23T05:50:19;100634.16;;;24.62
45701;BMP280;36277;32.852;-116.998;2023-03-23T05:52:47;100636.22;;;24.60
45701;BMP280;36277;32.852;-116.998;2023-03-23T05:55:14;100637.47;;;24.57
45701;BMP280;36277;32.852;-116.998;2023-03-23T05:57:40;100639.19;;;24.58
45701;BMP280;36277;32.852;-116.998;2023-03-23T06:00:08;100645.56;;;24.59
45701;BMP280;36277;32.852;-116.998;2023-03-23T06:02:41;100637.63;;;24.56
45701;BMP280;36277;32.852;-116.998;2023-03-23T06:05:11;100655.59;;;24.52
45701;BMP280;36277;32.852;-116.998;2023-03-23T06:07:38;100651.81;;;24.53
45701;BMP280;36277;32.852;-116.998;2023-03-23T06:10:08;100650.22;;;24.58
45701;BMP280;36277;32.852;-116.998;2023-03-23T06:12:35;100656.97;;;24.56
45701;BMP280;36277;32.852;-116.998;2023-03-23T06:15:02;100650.97;;;24.52
45701;BMP280;36277;32.852;-116.998;2023-03-23T06:17:29;100666.66;;;24.52
45701;BMP280;36277;32.852;-116.998;2023-03-23T06:19:56;100666.16;;;24.48
45701;BMP280;36277;32.852;-116.998;2023-03-23T06:22:22;100666.84;;;24.42
45701;BMP280;36277;32.852;-116.998;2023-03-23T06:24:48;100662.94;;;24.37
45701;BMP280;36277;32.852;-116.998;2023-03-23T06:27:15;100671.78;;;24.32
45701;BMP280;36277;32.852;-116.998;2023-03-23T06:29:42;100661.25;;;24.28
45701;BMP280;36277;32.852;-116.998;2023-03-23T06:32:13;100654.72;;;24.29
45701;BMP280;36277;32.852;-116.998;2023-03-23T06:34:39;100662.50;;;24.25
45701;BMP280;36277;32.852;-116.998;2023-03-23T06:37:09;100660.41;;;24.27
45701;BMP280;36277;32.852;-116.998;2023-03-23T06:39:37;100659.22;;;24.22
45701;BMP280;36277;32.852;-116.998;2023-03-23T06:42:04;100661.34;;;24.20
45701;BMP280;36277;32.852;-116.998;2023-03-23T06:44:31;100659.63;;;24.19
45701;BMP280;36277;32.852;-116.998;2023-03-23T06:46:57;100660.47;;;24.19
45701;BMP280;36277;32.852;-116.998;2023-03-23T06:49:24;100659.09;;;24.15
45701;BMP280;36277;32.852;-116.998;2023-03-23T06:51:50;100662.06;;;24.14
45701;BMP280;36277;32.852;-116.998;2023-03-23T06:54:16;100656.53;;;24.14
45701;BMP280;36277;32.852;-116.998;2023-03-23T06:56:43;100661.19;;;24.13
45701;BMP280;36277;32.852;-116.998;2023-03-23T06:59:09;100666.69;;;24.13
45701;BMP280;36277;32.852;-116.998;2023-03-23T07:01:36;100661.53;;;24.11
45701;BMP280;36277;32.852;-116.998;2023-03-23T07:04:02;100660.22;;;24.07
45701;BMP280;36277;32.852;-116.998;2023-03-23T07:06:28;100660.38;;;24.05
45701;BMP280;36277;32.852;-116.998;2023-03-23T07:08:55;100657.13;;;24.02
45701;BMP280;36277;32.852;-116.998;2023-03-23T07:11:21;100658.16;;;24.01
45701;BMP280;36277;32.852;-116.998;2023-03-23T07:13:47;100664.03;;;23.98
45701;BMP280;36277;32.852;-116.998;2023-03-23T07:16:16;100660.41;;;23.97
45701;BMP280;36277;32.852;-116.998;2023-03-23T07:18:43;100656.13;;;23.95
45701;BMP280;36277;32.852;-116.998;2023-03-23T07:21:09;100657.34;;;23.92
45701;BMP280;36277;32.852;-116.998;2023-03-23T07:23:36;100661.84;;;23.93
45701;BMP280;36277;32.852;-116.998;2023-03-23T07:26:03;100659.44;;;23.90
45701;BMP280;36277;32.852;-116.998;2023-03-23T07:28:29;100656.84;;;23.89
45701;BMP280;36277;32.852;-116.998;2023-03-23T07:30:56;100659.78;;;23.87
45701;BMP280;36277;32.852;-116.998;2023-03-23T07:33:22;100663.59;;;23.86
45701;BMP280;36277;32.852;-116.998;2023-03-23T07:35:48;100666.50;;;23.85
45701;BMP280;36277;32.852;-116.998;2023-03-23T07:38:15;100665.66;;;23.84
45701;BMP280;36277;32.852;-116.998;2023-03-23T07:40:41;100662.22;;;23.82
45701;BMP280;36277;32.852;-116.998;2023-03-23T07:43:08;100666.00;;;23.81
45701;BMP280;36277;32.852;-116.998;2023-03-23T07:45:34;100668.09;;;23.79
45701;BMP280;36277;32.852;-116.998;2023-03-23T07:48:01;100677.38;;;23.78
45701;BMP280;36277;32.852;-116.998;2023-03-23T07:50:27;100670.31;;;23.76
45701;BMP280;36277;32.852;-116.998;2023-03-23T07:52:56;100673.06;;;23.76
45701;BMP280;36277;32.852;-116.998;2023-03-23T07:55:23;100678.75;;;23.74
45701;BMP280;36277;32.852;-116.998;2023-03-23T07:57:51;100678.94;;;23.73
45701;BMP280;36277;32.852;-116.998;2023-03-23T08:00:18;100681.00;;;23.71
45701;BMP280;36277;32.852;-116.998;2023-03-23T08:02:54;100684.44;;;23.73
45701;BMP280;36277;32.852;-116.998;2023-03-23T08:05:26;100681.38;;;23.68
45701;BMP280;36277;32.852;-116.998;2023-03-23T08:07:54;100678.81;;;23.66
45701;BMP280;36277;32.852;-116.998;2023-03-23T08:10:22;100670.69;;;23.65
45701;BMP280;36277;32.852;-116.998;2023-03-23T08:12:54;100671.56;;;23.65
45701;BMP280;36277;32.852;-116.998;2023-03-23T08:15:21;100672.97;;;23.61
45701;BMP280;36277;32.852;-116.998;2023-03-23T08:17:49;100667.59;;;23.60
45701;BMP280;36277;32.852;-116.998;2023-03-23T08:20:17;100677.78;;;23.59
45701;BMP280;36277;32.852;-116.998;2023-03-23T08:22:50;100676.91;;;23.59
45701;BMP280;36277;32.852;-116.998;2023-03-23T08:25:19;100672.97;;;23.53
45701;BMP280;36277;32.852;-116.998;2023-03-23T08:27:45;100681.25;;;23.53
45701;BMP280;36277;32.852;-116.998;2023-03-23T08:30:15;100685.72;;;23.54
45701;BMP280;36277;32.852;-116.998;2023-03-23T08:32:43;100688.31;;;23.48
45701;BMP280;36277;32.852;-116.998;2023-03-23T08:35:10;100683.66;;;23.48
45701;BMP280;36277;32.852;-116.998;2023-03-23T08:37:38;100690.19;;;23.47
45701;BMP280;36277;32.852;-116.998;2023-03-23T08:40:05;100688.88;;;23.43
45701;BMP280;36277;32.852;-116.998;2023-03-23T08:42:41;100690.75;;;23.43
45701;BMP280;36277;32.852;-116.998;2023-03-23T08:45:10;100706.78;;;23.39
45701;BMP280;36277;32.852;-116.998;2023-03-23T08:47:38;100709.88;;;23.36
45701;BMP280;36277;32.852;-116.998;2023-03-23T08:50:06;100709.00;;;23.36
45701;BMP280;36277;32.852;-116.998;2023-03-23T08:52:32;100711.25;;;23.32
45701;BMP280;36277;32.852;-116.998;2023-03-23T08:54:59;100705.94;;;23.31
45701;BMP280;36277;32.852;-116.998;2023-03-23T08:57:25;100705.06;;;23.30
45701;BMP280;36277;32.852;-116.998;2023-03-23T08:59:52;100707.13;;;23.28
45701;BMP280;36277;32.852;-116.998;2023-03-23T09:02:20;100701.63;;;23.28
45701;BMP280;36277;32.852;-116.998;2023-03-23T09:04:49;100699.41;;;23.24
45701;BMP280;36277;32.852;-116.998;2023-03-23T09:07:16;100695.97;;;23.22
45701;BMP280;36277;32.852;-116.998;2023-03-23T09:09:42;100696.31;;;23.19
45701;BMP280;36277;32.852;-116.998;2023-03-23T09:12:09;100696.13;;;23.20
45701;BMP280;36277;32.852;-116.998;2023-03-23T09:14:37;100691.47;;;23.21
45701;BMP280;36277;32.852;-116.998;2023-03-23T09:17:04;100689.94;;;23.18
45701;BMP280;36277;32.852;-116.998;2023-03-23T09:19:33;100684.25;;;23.20
45701;BMP280;36277;32.852;-116.998;2023-03-23T09:22:00;100689.94;;;23.18
45701;BMP280;36277;32.852;-116.998;2023-03-23T09:24:27;100674.63;;;23.16
45701;BMP280;36277;32.852;-116.998;2023-03-23T09:26:54;100687.53;;;23.15
45701;BMP280;36277;32.852;-116.998;2023-03-23T09:29:20;100683.06;;;23.14
45701;BMP280;36277;32.852;-116.998;2023-03-23T09:31:46;100687.88;;;23.12
45701;BMP280;36277;32.852;-116.998;2023-03-23T09:34:14;100693.41;;;23.12
45701;BMP280;36277;32.852;-116.998;2023-03-23T09:36:44;100685.13;;;23.12
45701;BMP280;36277;32.852;-116.998;2023-03-23T09:39:11;100679.97;;;23.09
45701;BMP280;36277;32.852;-116.998;2023-03-23T09:41:54;100681.16;;;23.15
45701;BMP280;36277;32.852;-116.998;2023-03-23T09:44:36;100678.75;;;23.12
45701;BMP280;36277;32.852;-116.998;2023-03-23T09:47:20;100676.53;;;23.07
45701;BMP280;36277;32.852;-116.998;2023-03-23T09:49:58;100674.78;;;23.06
45701;BMP280;36277;32.852;-116.998;2023-03-23T09:52:42;100679.44;;;23.06
45701;BMP280;36277;32.852;-116.998;2023-03-23T09:55:14;100676.00;;;23.04
45701;BMP280;36277;32.852;-116.998;2023-03-23T09:58:03;100669.63;;;23.03
45701;BMP280;36277;32.852;-116.998;2023-03-23T10:01:09;100672.91;;;22.99
45701;BMP280;36277;32.852;-116.998;2023-03-23T10:03:44;100668.56;;;22.97
45701;BMP280;36277;32.852;-116.998;2023-03-23T10:06:17;100664.78;;;22.98
45701;BMP280;36277;32.852;-116.998;2023-03-23T10:08:53;100659.28;;;22.98
45701;BMP280;36277;32.852;-116.998;2023-03-23T10:11:43;100653.09;;;22.96
45701;BMP280;36277;32.852;-116.998;2023-03-23T10:14:25;100657.06;;;22.93
45701;BMP280;36277;32.852;-116.998;2023-03-23T10:22:32;100660.34;;;22.89
45701;BMP280;36277;32.852;-116.998;2023-03-23T10:30:49;100668.59;;;22.81
45701;BMP280;36277;32.852;-116.998;2023-03-23T10:33:38;100669.28;;;22.83
45701;BMP280;36277;32.852;-116.998;2023-03-23T10:36:12;100665.00;;;22.80
45701;BMP280;36277;32.852;-116.998;2023-03-23T10:39:16;100663.94;;;22.81
45701;BMP280;36277;32.852;-116.998;2023-03-23T10:41:40;100661.56;;;22.70
45701;BMP280;36277;32.852;-116.998;2023-03-23T10:44:21;100655.38;;;22.76
45701;BMP280;36277;32.852;-116.998;2023-03-23T10:47:02;100657.25;;;22.76
45701;BMP280;36277;32.852;-116.998;2023-03-23T10:49:39;100665.50;;;22.76
45701;BMP280;36277;32.852;-116.998;2023-03-23T10:52:30;100671.00;;;22.76
45701;BMP280;36277;32.852;-116.998;2023-03-23T10:55:18;100675.13;;;22.72
45701;BMP280;36277;32.852;-116.998;2023-03-23T10:57:58;100662.78;;;22.68
45701;BMP280;36277;32.852;-116.998;2023-03-23T11:00:27;100672.22;;;22.65
45701;BMP280;36277;32.852;-116.998;2023-03-23T11:02:58;100672.56;;;22.70
45701;BMP280;36277;32.852;-116.998;2023-03-23T11:05:44;100669.97;;;22.69
45701;BMP280;36277;32.852;-116.998;2023-03-23T11:08:13;100664.84;;;22.66
45701;BMP280;36277;32.852;-116.998;2023-03-23T11:13:17;100664.28;;;22.62
45701;BMP280;36277;32.852;-116.998;2023-03-23T11:15:47;100673.59;;;22.61
45701;BMP280;36277;32.852;-116.998;2023-03-23T11:18:34;100657.28;;;22.68
45701;BMP280;36277;32.852;-116.998;2023-03-23T11:21:02;100662.75;;;22.60
45701;BMP280;36277;32.852;-116.998;2023-03-23T11:23:39;100657.41;;;22.58
45701;BMP280;36277;32.852;-116.998;2023-03-23T11:26:28;100668.41;;;22.58
45701;BMP280;36277;32.852;-116.998;2023-03-23T11:29:11;100671.16;;;22.58
45701;BMP280;36277;32.852;-116.998;2023-03-23T11:31:46;100671.53;;;22.55
45701;BMP280;36277;32.852;-116.998;2023-03-23T11:34:57;100668.59;;;22.49
45701;BMP280;36277;32.852;-116.998;2023-03-23T11:37:13;100669.47;;;22.49
45701;BMP280;36277;32.852;-116.998;2023-03-23T11:42:26;100680.47;;;22.49
45701;BMP280;36277;32.852;-116.998;2023-03-23T11:45:24;100669.28;;;22.51
45701;BMP280;36277;32.852;-116.998;2023-03-23T11:48:20;100673.25;;;22.48
45701;BMP280;36277;32.852;-116.998;2023-03-23T11:50:53;100671.66;;;22.46
45701;BMP280;36277;32.852;-116.998;2023-03-23T11:53:26;100675.44;;;22.45
45701;BMP280;36277;32.852;-116.998;2023-03-23T11:56:25;100679.78;;;22.47
45701;BMP280;36277;32.852;-116.998;2023-03-23T11:58:55;100689.03;;;22.38
45701;BMP280;36277;32.852;-116.998;2023-03-23T12:07:55;100681.31;;;22.34
45701;BMP280;36277;32.852;-116.998;2023-03-23T12:15:15;100679.53;;;22.33
45701;BMP280;36277;32.852;-116.998;2023-03-23T12:18:15;100690.06;;;22.37
45701;BMP280;36277;32.852;-116.998;2023-03-23T12:20:56;100687.66;;;22.34
45701;BMP280;36277;32.852;-116.998;2023-03-23T12:23:30;100692.59;;;22.31
45701;BMP280;36277;32.852;-116.998;2023-03-23T12:47:57;100717.16;;;22.24
45701;BMP280;36277;32.852;-116.998;2023-03-23T12:50:39;100709.75;;;22.17
45701;BMP280;36277;32.852;-116.998;2023-03-23T12:58:55;100740.00;;;22.17
45701;BMP280;36277;32.852;-116.998;2023-03-23T13:01:36;100743.78;;;22.16
45701;BMP280;36277;32.852;-116.998;2023-03-23T13:04:20;100732.94;;;22.14
45701;BMP280;36277;32.852;-116.998;2023-03-23T13:06:48;100742.03;;;22.07
45701;BMP280;36277;32.852;-116.998;2023-03-23T13:09:27;100750.31;;;22.15
45701;BMP280;36277;32.852;-116.998;2023-03-23T13:11:59;100758.88;;;22.12
45701;BMP280;36277;32.852;-116.998;2023-03-23T13:17:42;100757.84;;;22.13
45701;BMP280;36277;32.852;-116.998;2023-03-23T13:20:22;100760.06;;;22.09
45701;BMP280;36277;32.852;-116.998;2023-03-23T13:28:20;100772.25;;;22.07
45701;BMP280;36277;32.852;-116.998;2023-03-23T13:31:00;100768.31;;;22.09
45701;BMP280;36277;32.852;-116.998;2023-03-23T13:33:32;100770.91;;;22.11
45701;BMP280;36277;32.852;-116.998;2023-03-23T13:36:12;100782.59;;;22.13
45701;BMP280;36277;32.852;-116.998;2023-03-23T13:38:47;100786.06;;;22.15
45701;BMP280;36277;32.852;-116.998;2023-03-23T13:41:16;100782.94;;;22.18
45701;BMP280;36277;32.852;-116.998;2023-03-23T13:43:44;100784.69;;;22.27
45701;BMP280;36277;32.852;-116.998;2023-03-23T13:48:50;100790.31;;;22.51
45701;BMP280;36277;32.852;-116.998;2023-03-23T13:59:48;100800.44;;;23.07
45701;BMP280;36277;32.852;-116.998;2023-03-23T14:02:32;100806.28;;;23.28
45701;BMP280;36277;32.852;-116.998;2023-03-23T14:10:49;100806.06;;;23.70
45701;BMP280;36277;32.852;-116.998;2023-03-23T14:16:02;100811.41;;;23.95
45701;BMP280;36277;32.852;-116.998;2023-03-23T14:18:36;100806.19;;;24.08
45701;BMP280;36277;32.852;-116.998;2023-03-23T14:23:32;100819.53;;;24.27
45701;BMP280;36277;32.852;-116.998;2023-03-23T14:26:02;100825.19;;;24.41
45701;BMP280;36277;32.852;-116.998;2023-03-23T14:28:38;100825.00;;;24.51
45701;BMP280;36277;32.852;-116.998;2023-03-23T14:31:12;100828.47;;;24.45
45701;BMP280;36277;32.852;-116.998;2023-03-23T14:33:40;100828.13;;;24.40
45701;BMP280;36277;32.852;-116.998;2023-03-23T14:36:07;100828.13;;;24.40
45701;BMP280;36277;32.852;-116.998;2023-03-23T14:38:34;100830.00;;;24.39
45701;BMP280;36277;32.852;-116.998;2023-03-23T14:41:05;100836.06;;;24.43
45701;BMP280;36277;32.852;-116.998;2023-03-23T14:43:33;100834.50;;;24.40
45701;BMP280;36277;32.852;-116.998;2023-03-23T14:46:07;100823.50;;;24.32
45701;BMP280;36277;32.852;-116.998;2023-03-23T14:48:34;100828.69;;;24.27
45701;BMP280;36277;32.852;-116.998;2023-03-23T14:51:04;100840.94;;;24.25
45701;BMP280;36277;32.852;-116.998;2023-03-23T14:53:38;100835.25;;;24.26
45701;BMP280;36277;32.852;-116.998;2023-03-23T14:56:15;100835.41;;;24.25
45701;BMP280;36277;32.852;-116.998;2023-03-23T14:58:46;100841.66;;;24.19
45701;BMP280;36277;32.852;-116.998;2023-03-23T15:01:20;100838.03;;;24.18
45701;BMP280;36277;32.852;-116.998;2023-03-23T15:04:12;100844.09;;;24.14
45701;BMP280;36277;32.852;-116.998;2023-03-23T15:06:46;100855.81;;;24.08
45701;BMP280;36277;32.852;-116.998;2023-03-23T15:09:17;100855.81;;;24.08
45701;BMP280;36277;32.852;-116.998;2023-03-23T15:12:02;100855.13;;;24.06
45701;BMP280;36277;32.852;-116.998;2023-03-23T15:14:41;100860.66;;;23.98
45701;BMP280;36277;32.852;-116.998;2023-03-23T15:17:39;100872.38;;;24.00
45701;BMP280;36277;32.852;-116.998;2023-03-23T15:20:09;100861.88;;;23.96
45701;BMP280;36277;32.852;-116.998;2023-03-23T15:22:45;100869.97;;;23.97
45701;BMP280;36277;32.852;-116.998;2023-03-23T15:25:19;100866.72;;;23.94